Time;durP1;ratioP1;P1;durP2;ratioP2;P2;SDS_P1;SDS_P2;PMS_P1;PMS_P2;Temp;Humidity;BMP_temperature;BMP_pressure;BME280_temperature;BME280_humidity;BME280_pressure;Samples;Min_cycle;Max_cycle;Signal;HPM_P1;HPM_P2
2022/02/05 00:00:53;;;;;;;7.35;1.90;;;;;;;;;;5021143;28;20524;-67
2022/02/05 00:03:29;;;;;;;6.70;1.60;;;;;;;;;;5020248;28;20050;-67
2022/02/05 00:05:59;;;;;;;10.10;1.90;;;;;;;;;;5012186;28;20060;-67
2022/02/05 00:38:12;;;;;;;12.27;1.95;;;;;;;;;;5014553;28;20050;-66
2022/02/05 00:44:07;;;;;;;12.00;2.53;;;;;;;;;;4936737;29;20055;-67
2022/02/05 00:46:38;;;;;;;14.88;2.40;;;;;;;;;;4931520;28;20526;-68
2022/02/05 00:49:04;;;;;;;10.32;1.83;;;;;;;;;;4939758;29;20051;-68
2022/02/05 00:51:42;;;;;;;7.13;1.55;;;;;;;;;;4932140;29;20420;-68
2022/02/05 00:54:13;;;;;;;12.50;2.13;;;;;;;;;;4935671;29;20317;-67
2022/02/05 00:59:12;;;;;;;7.70;1.60;;;;;;;;;;4939599;29;20436;-66
2022/02/05 01:01:38;;;;;;;15.93;2.10;;;;;;;;;;4932109;29;20489;-66
2022/02/05 01:04:05;;;;;;;7.18;2.05;;;;;;;;;;4938635;29;20450;-66
2022/02/05 01:06:31;;;;;;;5.63;1.80;;;;;;;;;;4939831;29;20048;-66
2022/02/05 01:08:58;;;;;;;13.13;2.15;;;;;;;;;;4946115;28;20143;-66
2022/02/05 01:11:24;;;;;;;8.80;2.30;;;;;;;;;;4938918;28;20055;-66
2022/02/05 01:13:52;;;;;;;8.82;1.90;;;;;;;;;;4948824;28;20051;-66
2022/02/05 01:16:27;;;;;;;10.98;2.45;;;;;;;;;;4947186;28;20055;-66
2022/02/05 01:18:53;;;;;;;10.63;2.33;;;;;;;;;;5002395;28;20061;-66
2022/02/05 01:23:51;;;;;;;9.25;1.85;;;;;;;;;;5023810;28;20487;-66
2022/02/05 01:26:33;;;;;;;6.85;1.92;;;;;;;;;;5016015;28;20049;-66
2022/02/05 01:29:08;;;;;;;9.65;2.17;;;;;;;;;;5024284;28;20041;-67
2022/02/05 01:31:44;;;;;;;7.38;2.05;;;;;;;;;;5016210;28;20355;-67
2022/02/05 01:34:36;;;;;;;9.30;2.15;;;;;;;;;;5016235;28;20049;-67
2022/02/05 01:53:28;;;;;;;10.60;1.70;;;;;;;;;;5024209;28;20052;-66
2022/02/05 02:11:49;;;;;;;7.95;1.85;;;;;;;;;;5034378;28;20041;-67
2022/02/05 02:30:03;;;;;;;10.65;1.95;;;;;;;;;;5009833;28;20504;-66
2022/02/05 02:32:31;;;;;;;13.20;1.70;;;;;;;;;;5021377;28;20057;-66
2022/02/05 02:35:07;;;;;;;9.00;1.73;;;;;;;;;;5014506;28;20389;-66
2022/02/05 02:37:44;;;;;;;16.58;2.35;;;;;;;;;;5022514;28;20050;-66
2022/02/05 02:40:23;;;;;;;7.75;1.52;;;;;;;;;;5013816;28;20049;-66
2022/02/05 02:42:53;;;;;;;15.23;2.08;;;;;;;;;;5014550;28;20495;-66
2022/02/05 02:45:19;;;;;;;10.55;1.50;;;;;;;;;;5013711;28;20045;-66
2022/02/05 02:47:46;;;;;;;5.82;1.48;;;;;;;;;;5005106;28;20058;-66
2022/02/05 02:58:25;;;;;;;6.90;1.27;;;;;;;;;;5010344;28;20045;-66
2022/02/05 03:00:56;;;;;;;15.00;2.10;;;;;;;;;;5022824;28;20147;-66
2022/02/05 03:03:23;;;;;;;8.10;1.30;;;;;;;;;;5013272;28;20132;-66
2022/02/05 03:05:49;;;;;;;12.75;2.00;;;;;;;;;;5021342;28;20053;-66
2022/02/05 03:08:15;;;;;;;13.27;1.75;;;;;;;;;;5014136;28;20562;-66
2022/02/05 03:10:42;;;;;;;17.15;2.95;;;;;;;;;;5012243;28;20140;-66
2022/02/05 03:13:08;;;;;;;19.50;2.35;;;;;;;;;;5033649;28;20045;-66
2022/02/05 03:15:39;;;;;;;8.90;2.13;;;;;;;;;;5025481;28;20060;-67
2022/02/05 03:18:11;;;;;;;9.55;1.70;;;;;;;;;;5021543;28;20049;-66
2022/02/05 03:20:37;;;;;;;6.28;1.40;;;;;;;;;;5013620;28;20080;-67
2022/02/05 03:23:03;;;;;;;10.73;1.40;;;;;;;;;;5016621;28;20052;-65
2022/02/05 03:25:30;;;;;;;9.88;1.80;;;;;;;;;;5008299;28;20420;-65
2022/02/05 03:27:58;;;;;;;10.52;1.65;;;;;;;;;;5019462;28;20050;-65
2022/02/05 03:30:24;;;;;;;7.47;1.60;;;;;;;;;;5021888;28;20235;-66
2022/02/05 03:32:51;;;;;;;10.55;1.55;;;;;;;;;;5012803;28;20060;-66
2022/02/05 03:35:18;;;;;;;12.00;2.25;;;;;;;;;;5021672;28;20058;-66
2022/02/05 03:37:44;;;;;;;10.45;1.70;;;;;;;;;;5007728;28;20984;-66
2022/02/05 03:40:11;;;;;;;8.55;1.65;;;;;;;;;;5014821;28;20080;-66
2022/02/05 03:42:39;;;;;;;13.35;2.47;;;;;;;;;;5010874;28;20071;-66
2022/02/05 03:45:08;;;;;;;12.93;1.70;;;;;;;;;;5020769;28;20050;-66
2022/02/05 03:47:35;;;;;;;7.93;1.40;;;;;;;;;;5021077;28;20055;-66
2022/02/05 03:50:03;;;;;;;9.88;1.65;;;;;;;;;;5012823;28;20418;-66
2022/02/05 03:52:29;;;;;;;12.25;1.83;;;;;;;;;;5014541;28;20359;-67
2022/02/05 03:54:56;;;;;;;14.80;1.95;;;;;;;;;;5011414;28;20060;-66
2022/02/05 03:57:22;;;;;;;16.67;1.73;;;;;;;;;;5021457;28;20045;-67
2022/02/05 03:59:50;;;;;;;8.23;1.85;;;;;;;;;;5014227;28;20045;-66
2022/02/05 04:02:16;;;;;;;10.18;1.60;;;;;;;;;;5020797;28;20442;-66
2022/02/05 04:04:43;;;;;;;15.38;1.50;;;;;;;;;;5017668;28;20053;-66
2022/02/05 04:07:09;;;;;;;8.25;1.75;;;;;;;;;;5016664;28;20052;-66
2022/02/05 04:09:41;;;;;;;9.38;1.88;;;;;;;;;;5041030;28;20045;-66
2022/02/05 04:17:25;;;;;;;14.13;1.85;;;;;;;;;;5033089;28;20461;-66
2022/02/05 04:19:52;;;;;;;12.27;1.63;;;;;;;;;;5033662;28;20143;-66
2022/02/05 04:22:18;;;;;;;9.68;1.83;;;;;;;;;;5041720;28;20059;-66
2022/02/05 04:24:45;;;;;;;6.93;1.52;;;;;;;;;;5033436;28;20068;-66
2022/02/05 04:27:11;;;;;;;7.90;1.50;;;;;;;;;;5041230;28;20800;-66
2022/02/05 04:29:37;;;;;;;11.82;1.80;;;;;;;;;;5023824;28;20068;-66
2022/02/05 04:32:07;;;;;;;13.95;1.88;;;;;;;;;;5016140;28;20049;-66
2022/02/05 04:34:33;;;;;;;9.90;1.70;;;;;;;;;;4989824;28;20080;-66
2022/02/05 04:37:02;;;;;;;11.38;2.00;;;;;;;;;;5019620;28;20752;-66
2022/02/05 04:39:30;;;;;;;14.80;2.13;;;;;;;;;;5019574;28;20072;-66
2022/02/05 04:42:05;;;;;;;11.75;1.80;;;;;;;;;;5012148;28;20350;-66
2022/02/05 04:44:59;;;;;;;6.43;1.45;;;;;;;;;;5020560;28;20072;-68
2022/02/05 04:58:26;;;;;;;6.30;1.20;;;;;;;;;;5015859;28;20053;-65
2022/02/05 05:01:05;;;;;;;12.45;2.38;;;;;;;;;;5018766;28;20600;-65
2022/02/05 05:03:51;;;;;;;4.88;1.17;;;;;;;;;;5012473;28;20473;-66
2022/02/05 05:19:31;;;;;;;11.40;2.53;;;;;;;;;;5023674;28;20415;-66
2022/02/05 05:21:59;;;;;;;8.32;1.52;;;;;;;;;;5015525;28;20065;-66
2022/02/05 05:24:26;;;;;;;11.57;2.20;;;;;;;;;;5023665;28;20457;-66
2022/02/05 05:26:53;;;;;;;10.73;1.65;;;;;;;;;;5013296;28;20601;-66
2022/02/05 05:29:20;;;;;;;11.80;1.98;;;;;;;;;;5015331;28;20045;-65
2022/02/05 05:31:46;;;;;;;13.88;1.67;;;;;;;;;;5022357;28;20061;-65
2022/02/05 05:34:12;;;;;;;7.90;1.40;;;;;;;;;;5015063;28;20060;-66
2022/02/05 05:36:39;;;;;;;9.00;1.60;;;;;;;;;;5023374;28;20046;-66
2022/02/05 05:39:07;;;;;;;7.85;1.42;;;;;;;;;;5015163;28;20050;-66
2022/02/05 05:41:34;;;;;;;7.35;1.52;;;;;;;;;;5019394;28;20046;-66
2022/02/05 05:44:35;;;;;;;13.48;1.95;;;;;;;;;;5008499;28;20049;-65
2022/02/05 05:50:12;;;;;;;15.48;2.08;;;;;;;;;;5014846;28;19925;-65
2022/02/05 05:52:31;;;;;;;12.52;1.70;;;;;;;;;;5023167;28;20491;-65
2022/02/05 05:54:57;;;;;;;6.90;1.65;;;;;;;;;;5015932;28;20053;-65
2022/02/05 05:57:24;;;;;;;9.82;1.60;;;;;;;;;;5014981;28;20418;-65
2022/02/05 05:59:50;;;;;;;6.28;1.63;;;;;;;;;;5021194;28;20045;-65
2022/02/05 06:02:17;;;;;;;6.80;1.40;;;;;;;;;;5015332;28;20060;-65
2022/02/05 06:04:43;;;;;;;11.70;1.88;;;;;;;;;;5022195;28;20054;-65
2022/02/05 06:07:09;;;;;;;10.50;1.88;;;;;;;;;;5022634;28;20527;-65
2022/02/05 06:09:40;;;;;;;16.30;1.90;;;;;;;;;;5025471;28;20045;-65
2022/02/05 06:12:07;;;;;;;17.77;2.30;;;;;;;;;;5025219;28;20486;-65
2022/02/05 06:14:33;;;;;;;11.77;2.40;;;;;;;;;;5034101;28;20053;-65
2022/02/05 06:17:06;;;;;;;10.18;1.45;;;;;;;;;;5042857;28;20495;-65
2022/02/05 06:19:35;;;;;;;25.15;2.80;;;;;;;;;;5037300;28;20063;-65
2022/02/05 06:22:02;;;;;;;10.17;1.87;;;;;;;;;;5038531;28;20279;-65
2022/02/05 06:24:28;;;;;;;13.93;2.45;;;;;;;;;;5031561;28;20065;-65
2022/02/05 06:26:54;;;;;;;9.07;1.73;;;;;;;;;;5042292;28;20065;-65
2022/02/05 06:29:21;;;;;;;9.93;2.17;;;;;;;;;;5035470;28;20081;-65
2022/02/05 06:31:47;;;;;;;14.10;2.05;;;;;;;;;;5015758;28;20053;-66
2022/02/05 06:34:13;;;;;;;20.88;2.65;;;;;;;;;;5023306;28;20355;-65
2022/02/05 06:36:40;;;;;;;13.43;2.00;;;;;;;;;;5008737;28;20050;-68
2022/02/05 06:39:06;;;;;;;8.80;1.75;;;;;;;;;;5017528;28;20735;-66
2022/02/05 06:41:32;;;;;;;9.27;1.70;;;;;;;;;;5014065;28;20057;-66
2022/02/05 06:43:59;;;;;;;17.85;2.85;;;;;;;;;;5020512;28;20553;-66
2022/02/05 06:46:25;;;;;;;7.95;1.55;;;;;;;;;;5022477;28;20045;-66
2022/02/05 06:48:51;;;;;;;11.70;2.17;;;;;;;;;;5013592;28;20049;-66
2022/02/05 06:51:18;;;;;;;12.85;2.13;;;;;;;;;;5017121;28;20050;-66
2022/02/05 06:53:44;;;;;;;15.50;3.47;;;;;;;;;;5009790;28;20055;-65
2022/02/05 06:56:10;;;;;;;12.88;2.03;;;;;;;;;;5022725;28;20482;-65
2022/02/05 06:58:37;;;;;;;16.40;2.35;;;;;;;;;;5013866;28;20053;-66
2022/02/05 07:01:03;;;;;;;12.85;2.20;;;;;;;;;;5019045;28;20057;-66
2022/02/05 07:03:29;;;;;;;8.10;2.10;;;;;;;;;;5019058;28;20045;-65
2022/02/05 07:05:56;;;;;;;14.95;3.00;;;;;;;;;;5005392;28;20053;-68
2022/02/05 07:08:22;;;;;;;10.35;2.17;;;;;;;;;;5007555;28;20199;-66
2022/02/05 07:10:50;;;;;;;11.20;2.80;;;;;;;;;;5033523;28;20067;-66
2022/02/05 07:13:19;;;;;;;9.73;2.45;;;;;;;;;;5041639;28;20057;-66
2022/02/05 07:15:56;;;;;;;17.45;3.72;;;;;;;;;;5033769;28;20276;-66
2022/02/05 07:21:06;;;;;;;12.43;2.63;;;;;;;;;;5036472;28;20525;-66
2022/02/05 07:23:46;;;;;;;9.38;3.00;;;;;;;;;;5038669;28;20049;-66
2022/02/05 07:29:14;;;;;;;12.20;3.13;;;;;;;;;;5008670;28;20042;-66
2022/02/05 07:31:47;;;;;;;15.88;2.80;;;;;;;;;;5014513;28;20250;-66
2022/02/05 07:34:14;;;;;;;16.48;2.65;;;;;;;;;;5007810;28;20693;-66
2022/02/05 07:36:40;;;;;;;9.98;2.83;;;;;;;;;;5020143;28;20327;-68
2022/02/05 07:39:07;;;;;;;14.60;2.90;;;;;;;;;;5013018;28;20046;-66
2022/02/05 07:41:36;;;;;;;14.77;3.38;;;;;;;;;;5020814;28;20045;-66
2022/02/05 07:44:02;;;;;;;;;;;;;;;;;;5012232;28;20053;-66
2022/02/05 07:46:29;;;;;;;7.55;2.47;;;;;;;;;;5016030;28;20657;-65
2022/02/05 07:48:55;;;;;;;10.80;2.45;;;;;;;;;;4997594;28;20053;-66
2022/02/05 07:51:22;;;;;;;12.77;3.13;;;;;;;;;;5011981;28;20084;-66
2022/02/05 07:53:48;;;;;;;15.85;3.28;;;;;;;;;;5021291;28;20053;-66
2022/02/05 07:56:15;;;;;;;15.73;3.58;;;;;;;;;;5013086;28;21032;-66
2022/02/05 07:58:41;;;;;;;10.75;2.70;;;;;;;;;;5019791;28;20056;-66
2022/02/05 08:01:07;;;;;;;20.00;3.97;;;;;;;;;;5017076;28;20925;-66
2022/02/05 08:03:34;;;;;;;15.10;4.20;;;;;;;;;;5006977;28;20330;-66
2022/02/05 08:06:01;;;;;;;12.15;3.63;;;;;;;;;;5020154;28;20053;-66
2022/02/05 08:08:31;;;;;;;15.10;3.75;;;;;;;;;;4994862;28;20117;-66
2022/02/05 08:11:02;;;;;;;14.02;3.40;;;;;;;;;;5020508;28;20053;-66
2022/02/05 08:13:31;;;;;;;13.07;3.45;;;;;;;;;;5026753;28;20049;-67
2022/02/05 08:16:09;;;;;;;14.02;3.50;;;;;;;;;;5034572;28;20048;-66
2022/02/05 08:18:37;;;;;;;13.32;3.88;;;;;;;;;;5038319;28;20060;-67
2022/02/05 08:21:04;;;;;;;15.07;3.53;;;;;;;;;;5028196;28;20049;-67
2022/02/05 08:23:33;;;;;;;13.70;3.33;;;;;;;;;;5020829;28;20053;-67
2022/02/05 08:25:59;;;;;;;15.48;3.60;;;;;;;;;;5011858;28;20064;-67
2022/02/05 08:28:28;;;;;;;10.63;3.65;;;;;;;;;;5015304;28;20289;-68
2022/02/05 08:30:54;;;;;;;12.07;3.53;;;;;;;;;;5007506;28;20085;-66
2022/02/05 08:33:21;;;;;;;12.88;3.92;;;;;;;;;;5020802;28;20053;-66
2022/02/05 08:35:51;;;;;;;12.38;3.20;;;;;;;;;;5020115;28;20045;-66
2022/02/05 08:38:17;;;;;;;8.13;3.70;;;;;;;;;;5014087;28;20056;-68
2022/02/05 08:40:44;;;;;;;12.40;3.28;;;;;;;;;;5018594;28;20310;-66
2022/02/05 08:43:11;;;;;;;13.23;3.45;;;;;;;;;;5004877;28;20053;-66
2022/02/05 08:45:38;;;;;;;16.77;3.95;;;;;;;;;;5034487;28;20055;-66
2022/02/05 08:48:05;;;;;;;16.92;3.88;;;;;;;;;;5027136;28;20083;-66
2022/02/05 08:50:32;;;;;;;18.23;4.05;;;;;;;;;;5020451;28;20045;-66
2022/02/05 08:53:02;;;;;;;15.38;3.92;;;;;;;;;;5020694;28;20132;-66
2022/02/05 08:55:30;;;;;;;12.70;3.53;;;;;;;;;;5009633;28;20057;-66
2022/02/05 08:57:59;;;;;;;12.05;3.35;;;;;;;;;;5016059;28;20053;-66
2022/02/05 09:00:26;;;;;;;9.88;3.40;;;;;;;;;;5012737;28;20053;-66
2022/02/05 09:03:01;;;;;;;12.32;4.55;;;;;;;;;;5019023;28;20064;-66
2022/02/05 09:07:54;;;;;;;13.18;3.63;;;;;;;;;;5031436;28;20045;-65
2022/02/05 09:15:32;;;;;;;11.30;4.07;;;;;;;;;;5040342;28;20057;-66
2022/02/05 09:17:59;;;;;;;18.00;4.75;;;;;;;;;;5028317;28;20064;-66
2022/02/05 09:20:26;;;;;;;15.98;4.20;;;;;;;;;;5018624;28;20470;-66
2022/02/05 09:22:54;;;;;;;13.05;4.13;;;;;;;;;;5007617;28;20076;-66
2022/02/05 09:25:21;;;;;;;16.58;3.55;;;;;;;;;;5015872;28;20064;-66
2022/02/05 09:27:49;;;;;;;14.52;3.90;;;;;;;;;;5011478;28;20053;-66
2022/02/05 09:30:17;;;;;;;13.20;3.42;;;;;;;;;;5020521;28;20406;-66
2022/02/05 09:32:44;;;;;;;9.32;3.10;;;;;;;;;;5017850;28;20046;-66
2022/02/05 09:35:12;;;;;;;11.93;3.85;;;;;;;;;;5006133;28;20056;-66
2022/02/05 09:37:38;;;;;;;11.25;3.63;;;;;;;;;;5008628;28;20050;-66
2022/02/05 09:40:05;;;;;;;12.38;3.47;;;;;;;;;;4999245;28;20069;-66
2022/02/05 09:42:31;;;;;;;15.50;4.05;;;;;;;;;;5019201;28;20053;-66
2022/02/05 09:45:02;;;;;;;17.33;4.68;;;;;;;;;;5011065;28;20048;-66
2022/02/05 09:47:28;;;;;;;11.40;3.60;;;;;;;;;;5003956;28;20294;-66
2022/02/05 09:49:55;;;;;;;14.80;3.63;;;;;;;;;;5021352;28;20482;-66
2022/02/05 09:52:24;;;;;;;16.30;3.25;;;;;;;;;;5015155;28;20049;-66
2022/02/05 09:54:51;;;;;;;13.27;3.20;;;;;;;;;;5022994;28;20396;-66
2022/02/05 09:57:19;;;;;;;12.27;3.40;;;;;;;;;;5015294;28;20053;-66
2022/02/05 09:59:48;;;;;;;14.23;3.67;;;;;;;;;;5023235;28;20371;-66
2022/02/05 10:02:19;;;;;;;14.75;3.35;;;;;;;;;;5008715;28;20499;-66
2022/02/05 10:05:07;;;;;;;16.03;2.93;;;;;;;;;;5021088;28;20053;-66
2022/02/05 10:07:56;;;;;;;11.48;2.78;;;;;;;;;;5029001;28;20326;-66
2022/02/05 10:10:23;;;;;;;9.52;2.60;;;;;;;;;;5042649;28;20055;-66
2022/02/05 10:13:09;;;;;;;17.35;3.00;;;;;;;;;;5042860;28;20568;-66
2022/02/05 10:15:36;;;;;;;13.57;2.90;;;;;;;;;;5029619;28;20048;-66
2022/02/05 10:18:03;;;;;;;13.38;2.92;;;;;;;;;;5027141;28;20820;-67
2022/02/05 10:20:30;;;;;;;14.05;3.05;;;;;;;;;;5014372;28;20056;-67
2022/02/05 10:23:05;;;;;;;13.38;3.00;;;;;;;;;;5022059;28;20072;-66
2022/02/05 10:25:32;;;;;;;10.27;2.72;;;;;;;;;;5013921;28;20463;-67
2022/02/05 10:27:58;;;;;;;6.78;2.70;;;;;;;;;;5020116;28;20060;-67
2022/02/05 10:30:28;;;;;;;12.27;2.95;;;;;;;;;;5017284;28;20069;-67
2022/02/05 10:33:28;;;;;;;12.30;2.63;;;;;;;;;;5014024;28;20430;-66
2022/02/05 10:36:03;;;;;;;9.38;2.17;;;;;;;;;;5016913;28;20050;-66
2022/02/05 10:43:00;;;;;;;8.75;2.00;;;;;;;;;;5021625;28;20049;-66
2022/02/05 10:43:49;;;;;;;13.10;2.65;;;;;;;;;;5005420;28;20058;-66
2022/02/05 10:46:15;;;;;;;12.10;2.10;;;;;;;;;;5019153;28;20046;-66
2022/02/05 10:48:42;;;;;;;10.80;2.42;;;;;;;;;;5010067;28;20061;-66
2022/02/05 10:51:08;;;;;;;17.20;2.92;;;;;;;;;;5042351;28;20652;-66
2022/02/05 10:53:53;;;;;;;12.77;2.60;;;;;;;;;;5031613;28;20498;-66
2022/02/05 10:56:29;;;;;;;9.02;2.28;;;;;;;;;;5018631;28;20060;-66
2022/02/05 11:07:14;;;;;;;9.07;1.90;;;;;;;;;;5014927;28;20050;-66
2022/02/05 11:09:43;;;;;;;9.07;2.83;;;;;;;;;;5018828;28;20284;-66
2022/02/05 11:20:10;;;;;;;11.73;2.85;;;;;;;;;;5023498;28;20049;-66
2022/02/05 11:22:38;;;;;;;11.73;2.70;;;;;;;;;;5015064;28;20050;-67
2022/02/05 11:25:05;;;;;;;14.85;2.55;;;;;;;;;;5016082;28;20057;-66
2022/02/05 11:27:32;;;;;;;11.50;2.13;;;;;;;;;;5021307;28;20578;-66
2022/02/05 11:30:17;;;;;;;16.27;2.53;;;;;;;;;;5014565;28;20049;-66
2022/02/05 11:32:47;;;;;;;10.48;1.95;;;;;;;;;;5022790;28;20150;-66
2022/02/05 11:35:22;;;;;;;10.73;2.17;;;;;;;;;;5015157;28;20065;-66
2022/02/05 11:37:54;;;;;;;9.77;2.28;;;;;;;;;;5016862;28;20045;-66
2022/02/05 11:40:39;;;;;;;9.43;2.50;;;;;;;;;;5010166;28;20049;-66
2022/02/05 11:43:14;;;;;;;16.90;2.75;;;;;;;;;;5022656;28;20054;-66
2022/02/05 11:45:41;;;;;;;10.52;1.70;;;;;;;;;;5015158;28;20403;-66
2022/02/05 11:48:26;;;;;;;8.75;2.10;;;;;;;;;;5022312;28;20046;-66
2022/02/05 11:51:10;;;;;;;10.68;2.00;;;;;;;;;;5017831;28;20042;-66
2022/02/05 11:54:15;;;;;;;16.13;2.92;;;;;;;;;;5015449;28;20049;-66
2022/02/05 11:56:50;;;;;;;17.40;2.67;;;;;;;;;;4936046;29;20059;-66
2022/02/05 11:59:42;;;;;;;9.70;2.28;;;;;;;;;;4941650;29;20054;-66
2022/02/05 12:02:12;;;;;;;13.63;2.17;;;;;;;;;;4919684;28;20071;-67
2022/02/05 12:04:39;;;;;;;8.48;1.98;;;;;;;;;;4933090;28;20055;-66
2022/02/05 12:07:07;;;;;;;14.15;2.50;;;;;;;;;;4919062;29;20081;-66
2022/02/05 12:09:53;;;;;;;9.88;1.88;;;;;;;;;;4938878;28;20060;-66
2022/02/05 12:12:27;;;;;;;9.88;1.90;;;;;;;;;;4960968;28;20058;-69
2022/02/05 12:15:11;;;;;;;9.48;1.83;;;;;;;;;;4952486;28;20486;-67
2022/02/05 12:18:03;;;;;;;10.73;1.90;;;;;;;;;;4961243;28;20477;-66
2022/02/05 12:20:33;;;;;;;14.95;2.08;;;;;;;;;;4948486;28;20518;-66
2022/02/05 12:23:22;;;;;;;11.90;4.05;;;;;;;;;;4948981;28;20058;-66
2022/02/05 12:25:57;;;;;;;12.10;1.70;;;;;;;;;;4933749;29;20051;-67
2022/02/05 12:28:29;;;;;;;11.88;2.10;;;;;;;;;;4942110;29;20100;-67
2022/02/05 12:30:56;;;;;;;14.65;2.03;;;;;;;;;;4988584;28;20729;-66
2022/02/05 12:33:22;;;;;;;11.80;2.08;;;;;;;;;;5008765;28;20060;-66
2022/02/05 12:35:53;;;;;;;10.65;2.40;;;;;;;;;;5020168;28;20042;-66
2022/02/05 12:38:19;;;;;;;10.65;1.90;;;;;;;;;;5016651;28;20053;-66
2022/02/05 12:40:47;;;;;;;18.88;2.22;;;;;;;;;;5023105;28;20115;-66
2022/02/05 12:43:14;;;;;;;10.30;2.30;;;;;;;;;;5014885;28;20049;-66
2022/02/05 12:45:50;;;;;;;11.20;1.83;;;;;;;;;;5019827;28;20487;-66
2022/02/05 12:48:22;;;;;;;7.95;1.60;;;;;;;;;;5018459;28;20422;-66
2022/02/05 12:50:49;;;;;;;6.70;1.58;;;;;;;;;;5042981;28;20062;-66
2022/02/05 12:53:16;;;;;;;7.30;1.40;;;;;;;;;;5019248;28;20056;-66
2022/02/05 12:55:46;;;;;;;10.50;1.98;;;;;;;;;;5014767;28;20846;-66
2022/02/05 12:58:17;;;;;;;8.23;1.88;;;;;;;;;;5023141;28;20053;-66
2022/02/05 13:00:44;;;;;;;6.93;1.48;;;;;;;;;;5008994;28;20149;-66
2022/02/05 13:03:26;;;;;;;10.55;1.80;;;;;;;;;;5018129;28;20140;-66
2022/02/05 13:05:53;;;;;;;10.80;1.70;;;;;;;;;;5014221;28;20529;-66
2022/02/05 13:08:19;;;;;;;9.20;2.03;;;;;;;;;;5042119;28;20052;-66
2022/02/05 13:10:46;;;;;;;6.72;1.73;;;;;;;;;;5043813;28;20053;-66
2022/02/05 13:13:13;;;;;;;8.27;1.52;;;;;;;;;;5036541;28;20565;-66
2022/02/05 13:15:59;;;;;;;10.82;2.13;;;;;;;;;;5038095;28;20473;-66
2022/02/05 13:18:41;;;;;;;9.30;2.17;;;;;;;;;;5039890;28;20049;-66
2022/02/05 13:26:57;;;;;;;8.65;1.88;;;;;;;;;;5047336;28;20464;-66
2022/02/05 13:29:43;;;;;;;4.60;1.30;;;;;;;;;;5026327;28;20049;-66
2022/02/05 13:35:02;;;;;;;10.73;1.80;;;;;;;;;;5020917;28;20525;-67
2022/02/05 13:37:33;;;;;;;9.75;1.75;;;;;;;;;;5027314;28;20049;-66
2022/02/05 13:40:02;;;;;;;8.13;1.45;;;;;;;;;;5019368;28;20049;-66
2022/02/05 13:42:33;;;;;;;9.25;1.60;;;;;;;;;;5022319;28;20058;-67
2022/02/05 13:45:11;;;;;;;6.53;1.75;;;;;;;;;;5019639;28;20059;-67
2022/02/05 13:47:44;;;;;;;15.77;1.73;;;;;;;;;;5025483;28;20060;-66
2022/02/05 13:50:11;;;;;;;8.10;1.70;;;;;;;;;;5023902;28;20042;-67
2022/02/05 13:52:38;;;;;;;9.88;1.90;;;;;;;;;;5000180;28;20521;-67
2022/02/05 13:55:09;;;;;;;5.03;1.40;;;;;;;;;;5022117;28;20088;-67
2022/02/05 13:57:35;;;;;;;9.65;2.13;;;;;;;;;;5013309;28;20053;-66
2022/02/05 14:00:03;;;;;;;6.55;1.88;;;;;;;;;;5006629;28;20050;-67
2022/02/05 14:02:35;;;;;;;9.43;1.70;;;;;;;;;;5016846;28;20403;-66
2022/02/05 14:05:07;;;;;;;12.27;1.70;;;;;;;;;;5024805;28;20045;-67
2022/02/05 14:07:40;;;;;;;11.23;2.17;;;;;;;;;;5025091;28;20065;-67
2022/02/05 14:10:25;;;;;;;10.35;2.05;;;;;;;;;;5011460;28;20049;-67
2022/02/05 14:12:55;;;;;;;7.63;1.58;;;;;;;;;;5029466;28;20045;-67
2022/02/05 14:15:23;;;;;;;14.43;2.20;;;;;;;;;;5036681;28;20753;-67
2022/02/05 14:18:14;;;;;;;7.97;1.87;;;;;;;;;;5044287;28;20053;-67
2022/02/05 14:20:57;;;;;;;11.07;1.95;;;;;;;;;;5018058;28;20053;-67
2022/02/05 14:23:25;;;;;;;13.55;3.60;;;;;;;;;;5043191;28;20053;-67
2022/02/05 14:26:03;;;;;;;6.63;1.63;;;;;;;;;;5035992;28;20055;-67
2022/02/05 14:28:50;;;;;;;10.27;2.08;;;;;;;;;;5025949;28;20048;-67
2022/02/05 14:31:22;;;;;;;8.40;2.10;;;;;;;;;;5017148;28;20052;-67
2022/02/05 14:36:42;;;;;;;7.68;2.00;;;;;;;;;;5020221;28;20050;-67
2022/02/05 14:41:55;;;;;;;7.07;2.50;;;;;;;;;;5024604;28;20054;-67
2022/02/05 14:44:21;;;;;;;5.88;2.17;;;;;;;;;;4998782;28;20056;-67
2022/02/05 14:46:47;;;;;;;9.93;2.08;;;;;;;;;;5023874;28;20143;-67
2022/02/05 14:49:14;;;;;;;13.23;2.88;;;;;;;;;;5008990;28;20056;-67
2022/02/05 14:51:41;;;;;;;13.15;2.80;;;;;;;;;;5021451;28;20049;-67
2022/02/05 14:54:07;;;;;;;8.57;2.60;;;;;;;;;;5016861;28;20050;-67
2022/02/05 14:56:34;;;;;;;17.52;3.63;;;;;;;;;;5023927;28;20410;-67
2022/02/05 14:59:00;;;;;;;9.77;2.50;;;;;;;;;;5024376;28;20396;-67
2022/02/05 15:01:26;;;;;;;9.18;3.20;;;;;;;;;;5012613;28;20241;-66
2022/02/05 15:03:58;;;;;;;8.98;2.20;;;;;;;;;;5018489;28;20257;-66
2022/02/05 15:06:26;;;;;;;13.70;3.60;;;;;;;;;;5016353;28;20049;-66
2022/02/05 15:08:56;;;;;;;15.32;2.97;;;;;;;;;;5023894;28;20128;-66
2022/02/05 15:11:23;;;;;;;9.93;2.78;;;;;;;;;;5016938;28;20091;-66
2022/02/05 15:13:50;;;;;;;11.32;2.33;;;;;;;;;;5023476;28;20050;-66
2022/02/05 15:16:18;;;;;;;11.57;2.42;;;;;;;;;;5019683;28;20061;-66
2022/02/05 15:18:52;;;;;;;17.23;2.75;;;;;;;;;;5013696;28;20522;-66
2022/02/05 15:21:22;;;;;;;7.90;2.00;;;;;;;;;;5024599;28;20056;-66
2022/02/05 15:23:49;;;;;;;10.05;2.20;;;;;;;;;;5015504;28;20049;-66
2022/02/05 15:26:16;;;;;;;15.30;2.72;;;;;;;;;;5022232;28;20045;-66
2022/02/05 15:28:43;;;;;;;10.07;2.17;;;;;;;;;;5011194;28;20505;-66
2022/02/05 15:31:10;;;;;;;7.38;1.85;;;;;;;;;;5017972;28;20422;-66
2022/02/05 15:33:44;;;;;;;11.38;2.30;;;;;;;;;;5023504;28;20053;-66
2022/02/05 15:36:12;;;;;;;10.88;2.10;;;;;;;;;;4997635;28;20052;-66
2022/02/05 15:39:49;;;;;;;;;;;;;;;;;;5024029;28;20491;-66
2022/02/05 15:44:34;;;;;;;12.15;2.50;;;;;;;;;;5015343;28;20426;-66
2022/02/05 15:47:00;;;;;;;10.75;2.88;;;;;;;;;;5014302;28;20058;-66
2022/02/05 15:49:27;;;;;;;10.77;2.65;;;;;;;;;;5022421;28;20056;-66
2022/02/05 15:51:54;;;;;;;8.25;1.95;;;;;;;;;;5014867;28;20075;-66
2022/02/05 15:54:23;;;;;;;19.35;3.30;;;;;;;;;;5023229;28;20053;-66
2022/02/05 16:00:04;;;;;;;10.68;2.25;;;;;;;;;;4955921;28;20050;-66
2022/02/05 16:02:30;;;;;;;6.68;2.35;;;;;;;;;;4961164;28;20051;-66
2022/02/05 16:04:56;;;;;;;7.63;2.13;;;;;;;;;;4985960;28;20061;-66
2022/02/05 16:07:23;;;;;;;10.20;2.47;;;;;;;;;;5032886;28;20049;-66
2022/02/05 16:09:49;;;;;;;13.57;3.38;;;;;;;;;;5027585;28;20055;-67
2022/02/05 16:12:15;;;;;;;10.23;2.80;;;;;;;;;;5019963;28;20045;-66
2022/02/05 16:14:42;;;;;;;9.95;2.83;;;;;;;;;;5034139;28;20053;-66
2022/02/05 16:17:08;;;;;;;11.77;2.97;;;;;;;;;;5042444;28;20041;-67
2022/02/05 16:19:34;;;;;;;7.28;2.95;;;;;;;;;;5042627;28;20063;-66
2022/02/05 16:22:01;;;;;;;12.07;2.67;;;;;;;;;;5033777;28;20055;-66
2022/02/05 16:24:27;;;;;;;14.07;3.47;;;;;;;;;;5018112;28;20049;-66
2022/02/05 16:26:53;;;;;;;9.40;2.67;;;;;;;;;;5031646;28;20457;-66
2022/02/05 16:29:26;;;;;;;10.27;2.80;;;;;;;;;;5034382;28;20072;-66
2022/02/05 16:31:53;;;;;;;13.27;3.20;;;;;;;;;;5015133;28;20373;-66
2022/02/05 16:34:21;;;;;;;8.93;2.70;;;;;;;;;;5022458;28;20056;-66
2022/02/05 16:36:48;;;;;;;11.02;2.92;;;;;;;;;;4999784;28;20060;-66
2022/02/05 16:39:15;;;;;;;10.82;3.05;;;;;;;;;;5010210;28;20058;-66
2022/02/05 16:41:42;;;;;;;11.23;3.33;;;;;;;;;;5021897;28;20053;-66
2022/02/05 16:44:08;;;;;;;12.57;3.35;;;;;;;;;;5014056;28;20423;-66
2022/02/05 16:46:39;;;;;;;12.40;3.65;;;;;;;;;;5022487;28;20060;-66
2022/02/05 16:49:08;;;;;;;9.48;2.92;;;;;;;;;;5014130;28;20053;-66
2022/02/05 16:51:36;;;;;;;15.30;3.90;;;;;;;;;;5017119;28;20050;-66
2022/02/05 16:54:03;;;;;;;15.52;3.35;;;;;;;;;;5017475;28;20053;-66
2022/02/05 16:56:32;;;;;;;9.70;3.25;;;;;;;;;;5014597;28;20052;-66
2022/02/05 16:59:00;;;;;;;17.67;3.28;;;;;;;;;;5021864;28;20176;-66
2022/02/05 17:01:29;;;;;;;12.03;2.90;;;;;;;;;;5015315;28;20061;-66
2022/02/05 17:03:58;;;;;;;14.40;3.30;;;;;;;;;;5022662;28;20057;-66
2022/02/05 17:06:28;;;;;;;10.52;2.80;;;;;;;;;;5005331;28;20088;-66
2022/02/05 17:08:56;;;;;;;12.43;3.17;;;;;;;;;;5004275;28;20399;-68
2022/02/05 17:11:23;;;;;;;13.63;2.67;;;;;;;;;;5004844;28;20049;-68
2022/02/05 17:13:52;;;;;;;9.43;2.70;;;;;;;;;;5032555;28;20049;-68
2022/02/05 17:16:19;;;;;;;13.57;2.67;;;;;;;;;;5044430;28;20053;-67
2022/02/05 17:18:46;;;;;;;9.63;2.47;;;;;;;;;;5032258;28;20079;-67
2022/02/05 17:21:12;;;;;;;16.80;3.17;;;;;;;;;;5038301;28;20056;-67
2022/02/05 17:23:40;;;;;;;17.30;2.95;;;;;;;;;;5036178;28;20045;-66
2022/02/05 17:26:08;;;;;;;8.30;2.75;;;;;;;;;;5042110;28;20063;-67
2022/02/05 17:28:35;;;;;;;12.63;2.90;;;;;;;;;;5029380;28;20053;-68
2022/02/05 17:31:01;;;;;;;10.23;2.22;;;;;;;;;;5016183;28;20055;-67
2022/02/05 17:33:28;;;;;;;11.93;2.22;;;;;;;;;;5016025;28;20049;-67
2022/02/05 17:36:06;;;;;;;10.45;2.35;;;;;;;;;;5014616;28;20057;-67
2022/02/05 17:38:33;;;;;;;10.43;2.35;;;;;;;;;;5022679;28;20466;-67
2022/02/05 17:41:01;;;;;;;6.85;1.90;;;;;;;;;;5013678;28;20053;-67
2022/02/05 17:43:28;;;;;;;12.55;2.22;;;;;;;;;;5022230;28;20053;-68
2022/02/05 17:45:54;;;;;;;12.77;2.38;;;;;;;;;;5013934;28;20677;-68
2022/02/05 17:48:21;;;;;;;10.07;2.03;;;;;;;;;;5014936;28;20053;-66
2022/02/05 17:50:47;;;;;;;12.25;2.33;;;;;;;;;;5022045;28;20060;-66